Time;durP1;ratioP1;P1;durP2;ratioP2;P2;SDS_P1;SDS_P2;PMS_P1;PMS_P2;Temp;Humidity;BMP_temperature;BMP_pressure;BME280_temperature;BME280_humidity;BME280_pressure;Samples;Min_cycle;Max_cycle;Signal;HPM_P1;HPM_P2
2022/03/16 00:01:25;;;;;;;;;;;;;;;24.27;37.32;94783.00;4972868;28;6984;-62
2022/03/16 00:03:52;;;;;;;;;;;;;;;24.26;37.24;94778.00;4971670;28;9491;-62
2022/03/16 00:06:22;;;;;;;;;;;;;;;24.23;37.05;94776.97;4970620;28;7245;-62
2022/03/16 00:08:48;;;;;;;;;;;;;;;24.22;37.21;94777.47;4970803;28;9156;-62
2022/03/16 00:11:18;;;;;;;;;;;;;;;24.22;37.34;94777.47;4971344;28;7681;-62
2022/03/16 00:14:15;;;;;;;;;;;;;;;24.22;37.34;94778.22;4977171;28;7410;-62
2022/03/16 00:16:45;;;;;;;;;;;;;;;;;;4897896;29;9099;-62
2022/03/16 00:19:12;;;;;;;;;;;;;;;24.21;37.22;94765.72;4896286;29;8652;-62
2022/03/16 00:21:40;;;;;;;;;;;;;;;24.25;37.47;94773.75;4898743;29;7554;-62
2022/03/16 00:24:06;;;;;;;;;;;;;;;24.26;37.22;94778.00;4914425;29;9079;-62
2022/03/16 00:26:43;;;;;;;;;;;;;;;24.24;37.47;94770.25;4905245;29;7305;-62
2022/03/16 00:29:10;;;;;;;;;;;;;;;;;;4905363;29;7093;-62
2022/03/16 00:31:36;;;;;;;;;;;;;;;24.26;37.30;94762.25;4910519;29;9185;-62
2022/03/16 00:34:12;;;;;;;;;;;;;;;24.27;37.10;94769.25;4913274;29;9110;-62
2022/03/16 00:36:40;;;;;;;;;;;;;;;24.26;37.42;94761.50;4898503;29;9748;-62
2022/03/16 00:39:06;;;;;;;;;;;;;;;24.26;37.00;94756.75;4913070;29;8900;-62
2022/03/16 00:41:34;;;;;;;;;;;;;;;24.25;37.23;94755.25;4897687;29;9436;-62
2022/03/16 00:44:02;;;;;;;;;;;;;;;24.26;37.54;94745.75;4913192;29;9475;-62
2022/03/16 00:46:41;;;;;;;;;;;;;;;24.25;37.43;94755.25;4913890;29;8804;-62
2022/03/16 00:49:07;;;;;;;;;;;;;;;24.22;37.28;94744.50;4912465;29;7282;-62
2022/03/16 00:51:33;;;;;;;;;;;;;;;24.25;37.34;94744.25;4911945;29;7003;-62
2022/03/16 00:54:04;;;;;;;;;;;;;;;24.25;37.00;94752.50;4946781;28;7310;-62
2022/03/16 00:56:29;;;;;;;;;;;;;;;24.23;37.29;94735.75;4972045;28;7362;-62
2022/03/16 00:59:08;;;;;;;;;;;;;;;24.22;36.62;94750.75;4988011;28;8740;-62
2022/03/16 01:01:37;;;;;;;;;;;;;;;24.21;37.04;94740.22;4972328;28;7524;-62
2022/03/16 01:04:05;;;;;;;;;;;;;;;24.18;37.06;94744.75;4971974;28;7042;-62
2022/03/16 01:06:33;;;;;;;;;;;;;;;24.16;37.03;94730.75;4973388;28;9091;-62
2022/03/16 01:08:59;;;;;;;;;;;;;;;24.18;36.90;94730.25;4968516;28;7498;-62
2022/03/16 01:11:27;;;;;;;;;;;;;;;24.17;37.21;94726.72;4966019;28;7222;-62
2022/03/16 01:13:53;;;;;;;;;;;;;;;24.17;37.42;94721.22;4966647;28;7230;-62
2022/03/16 01:16:21;;;;;;;;;;;;;;;24.19;37.12;94724.25;4964708;28;9370;-62
2022/03/16 01:19:06;;;;;;;;;;;;;;;24.19;37.04;94729.75;4969531;28;7339;-62
2022/03/16 01:21:37;;;;;;;;;;;;;;;24.19;36.95;94724.25;4971889;28;7276;-62
2022/03/16 01:24:18;;;;;;;;;;;;;;;24.20;37.41;94719.50;4986846;28;9358;-62
2022/03/16 01:27:06;;;;;;;;;;;;;;;24.21;37.55;94716.25;4968568;28;7237;-62
2022/03/16 01:29:33;;;;;;;;;;;;;;;24.20;37.41;94720.25;4990857;28;7899;-62
2022/03/16 01:32:02;;;;;;;;;;;;;;;24.21;37.91;94705.25;4976015;28;8172;-62
2022/03/16 01:34:34;;;;;;;;;;;;;;;24.21;37.37;94716.25;4975740;28;7321;-62
2022/03/16 01:37:34;;;;;;;;;;;;;;;24.20;36.46;94711.25;4975675;28;7301;-62
2022/03/16 01:40:20;;;;;;;;;;;;;;;24.20;37.01;94714.75;4969887;28;7080;-62
2022/03/16 01:42:46;;;;;;;;;;;;;;;24.21;36.87;94713.50;4951248;28;9367;-62
2022/03/16 01:45:12;;;;;;;;;;;;;;;24.22;36.88;94720.53;4970854;28;7791;-62
2022/03/16 01:47:39;;;;;;;;;;;;;;;24.22;36.91;94714.25;4968884;28;9121;-62
2022/03/16 01:50:06;;;;;;;;;;;;;;;24.22;36.52;94717.00;4968975;28;9185;-62
2022/03/16 01:52:32;;;;;;;;;;;;;;;24.22;37.02;94717.00;4970955;28;9042;-62
2022/03/16 01:55:00;;;;;;;;;;;;;;;24.22;36.75;94715.03;4965372;28;9074;-62
2022/03/16 01:57:26;;;;;;;;;;;;;;;24.22;37.24;94706.78;4969150;28;7457;-62
2022/03/16 01:59:55;;;;;;;;;;;;;;;24.22;37.10;94712.28;4967713;28;9111;-62
2022/03/16 02:02:21;;;;;;;;;;;;;;;24.23;36.93;94707.53;4960591;28;7267;-62
2022/03/16 02:04:49;;;;;;;;;;;;;;;24.22;36.95;94714.25;4945853;28;8905;-62
2022/03/16 02:07:15;;;;;;;;;;;;;;;24.19;36.97;94707.75;4973701;28;7426;-62
2022/03/16 02:09:56;;;;;;;;;;;;;;;24.20;36.66;94698.28;4971236;28;8070;-62
2022/03/16 02:12:22;;;;;;;;;;;;;;;24.19;37.37;94702.25;4957521;28;7063;-62
2022/03/16 02:14:53;;;;;;;;;;;;;;;24.21;36.36;94707.25;4964801;28;9107;-62
2022/03/16 02:17:22;;;;;;;;;;;;;;;24.20;36.62;94706.53;4969640;28;9000;-62
2022/03/16 02:19:49;;;;;;;;;;;;;;;24.20;36.87;94695.53;4974011;28;8719;-62
2022/03/16 02:22:18;;;;;;;;;;;;;;;24.21;36.50;94707.25;4973887;28;9060;-62
2022/03/16 02:24:46;;;;;;;;;;;;;;;24.21;36.95;94708.00;4970288;28;9081;-62
2022/03/16 02:27:12;;;;;;;;;;;;;;;24.21;37.01;94705.25;4969693;28;9388;-62
2022/03/16 02:29:38;;;;;;;;;;;;;;;24.20;36.47;94703.78;4965516;28;7519;-62
2022/03/16 02:32:05;;;;;;;;;;;;;;;24.17;36.89;94698.50;4970199;28;7286;-62
2022/03/16 02:34:33;;;;;;;;;;;;;;;24.20;36.39;94703.00;4982548;28;9383;-62
2022/03/16 02:36:59;;;;;;;;;;;;;;;24.21;36.60;94705.25;4983255;28;9404;-62
2022/03/16 02:39:25;;;;;;;;;;;;;;;24.20;36.86;94703.78;4981292;28;7338;-62
2022/03/16 02:41:54;;;;;;;;;;;;;;;24.18;36.35;94703.50;4976986;28;7232;-62
2022/03/16 02:44:20;;;;;;;;;;;;;;;24.17;36.80;94709.47;4981258;28;9403;-62
2022/03/16 02:46:49;;;;;;;;;;;;;;;24.20;36.63;94706.53;4970292;28;7608;-62
2022/03/16 02:49:16;;;;;;;;;;;;;;;24.19;37.47;94707.75;4987383;28;9379;-62
2022/03/16 02:51:43;;;;;;;;;;;;;;;24.19;36.48;94705.00;4972448;28;9154;-62
2022/03/16 02:54:11;;;;;;;;;;;;;;;24.19;36.66;94696.00;4987832;28;7076;-62
2022/03/16 02:56:37;;;;;;;;;;;;;;;24.18;36.71;94709.00;4976091;28;7061;-62
2022/03/16 02:59:04;;;;;;;;;;;;;;;24.18;36.18;94700.00;4980501;28;9461;-62
2022/03/16 03:01:32;;;;;;;;;;;;;;;24.13;36.49;94704.22;4973462;28;9050;-62
2022/03/16 03:03:59;;;;;;;;;;;;;;;24.12;37.14;94705.47;4988994;28;7453;-62
2022/03/16 03:06:25;;;;;;;;;;;;;;;24.13;36.88;94704.22;4968224;28;7229;-62
2022/03/16 03:08:51;;;;;;;;;;;;;;;24.13;36.78;94709.72;4973338;28;7054;-62
2022/03/16 03:11:17;;;;;;;;;;;;;;;24.11;36.84;94712.22;4971070;28;7118;-62
2022/03/16 03:13:43;;;;;;;;;;;;;;;24.11;37.12;94712.22;4969394;28;8751;-62
2022/03/16 03:16:11;;;;;;;;;;;;;;;24.13;37.06;94715.22;4971764;28;8022;-62
2022/03/16 03:18:37;;;;;;;;;;;;;;;24.13;36.52;94714.47;4969667;28;8598;-62
2022/03/16 03:21:04;;;;;;;;;;;;;;;24.12;36.68;94713.72;4971141;28;9378;-62
2022/03/16 03:23:31;;;;;;;;;;;;;;;24.13;36.84;94709.72;4971448;28;7275;-62
2022/03/16 03:25:56;;;;;;;;;;;;;;;24.12;36.58;94712.97;4980353;28;7101;-62
2022/03/16 03:28:22;;;;;;;;;;;;;;;24.12;36.68;94713.72;4969018;28;7208;-62
2022/03/16 03:30:50;;;;;;;;;;;;;;;24.12;36.54;94715.72;4986785;28;7039;-62
2022/03/16 03:33:18;;;;;;;;;;;;;;;24.12;35.92;94710.22;4971028;28;9153;-62
2022/03/16 03:35:44;;;;;;;;;;;;;;;24.13;36.40;94714.47;4973012;28;6980;-62
2022/03/16 03:38:23;;;;;;;;;;;;;;;24.11;36.46;94723.22;4974640;28;9060;-62
2022/03/16 03:40:49;;;;;;;;;;;;;;;24.11;36.77;94720.47;4989022;28;6988;-62
2022/03/16 03:43:15;;;;;;;;;;;;;;;24.11;36.62;94722.47;4967989;28;9232;-62
2022/03/16 03:45:42;;;;;;;;;;;;;;;24.11;36.51;94719.72;4966218;28;7399;-62
2022/03/16 03:48:08;;;;;;;;;;;;;;;24.10;37.08;94716.19;4969309;28;8857;-62
2022/03/16 03:50:36;;;;;;;;;;;;;;;24.10;36.59;94729.22;4969268;28;9212;-62
2022/03/16 03:53:02;;;;;;;;;;;;;;;24.11;36.28;94719.72;4986747;28;9086;-62
2022/03/16 03:55:30;;;;;;;;;;;;;;;24.10;36.97;94727.19;4981559;28;7296;-62
2022/03/16 03:57:57;;;;;;;;;;;;;;;24.12;36.46;94723.97;4967358;28;7191;-62
2022/03/16 04:00:24;;;;;;;;;;;;;;;24.10;36.84;94723.72;4963729;28;9062;-62
2022/03/16 04:02:51;;;;;;;;;;;;;;;24.10;36.80;94732.69;4984004;28;7243;-62
2022/03/16 04:05:18;;;;;;;;;;;;;;;24.11;36.75;94738.94;4967033;28;7065;-62
2022/03/16 04:07:45;;;;;;;;;;;;;;;24.10;36.62;94743.69;4969812;28;9305;-62
2022/03/16 04:10:12;;;;;;;;;;;;;;;24.09;36.28;94739.44;4968535;28;9373;-62
2022/03/16 04:12:41;;;;;;;;;;;;;;;24.08;36.52;94737.94;4979224;28;8164;-62
2022/03/16 04:15:08;;;;;;;;;;;;;;;24.08;36.59;94734.41;4968523;28;9139;-62
2022/03/16 04:17:34;;;;;;;;;;;;;;;24.10;36.29;94743.69;4968646;28;7563;-62
2022/03/16 04:20:00;;;;;;;;;;;;;;;24.11;36.23;94747.94;4958758;28;8912;-62
2022/03/16 04:22:29;;;;;;;;;;;;;;;24.09;36.22;94742.19;4983719;28;8841;-62
2022/03/16 04:24:57;;;;;;;;;;;;;;;24.10;36.60;94743.69;4977743;28;8847;-62
2022/03/16 04:27:26;;;;;;;;;;;;;;;24.11;36.13;94744.44;4969695;28;8738;-63
2022/03/16 04:29:54;;;;;;;;;;;;;;;24.09;36.81;94746.94;4979708;28;7007;-62
2022/03/16 04:32:20;;;;;;;;;;;;;;;24.10;36.91;94751.19;4984650;28;9340;-62
2022/03/16 04:34:47;;;;;;;;;;;;;;;24.10;36.63;94751.19;4968686;28;9364;-62
2022/03/16 04:37:13;;;;;;;;;;;;;;;24.08;36.30;94754.41;4967259;28;8865;-63
2022/03/16 04:39:39;;;;;;;;;;;;;;;24.08;36.45;94750.91;4968911;28;7686;-62
2022/03/16 04:42:20;;;;;;;;;;;;;;;24.09;36.35;94752.44;4988373;28;7832;-62
2022/03/16 04:44:57;;;;;;;;;;;;;;;24.08;36.06;94759.16;4973712;28;9282;-62
2022/03/16 04:47:25;;;;;;;;;;;;;;;24.07;36.52;94755.69;4995412;28;7750;-62
2022/03/16 04:49:54;;;;;;;;;;;;;;;24.04;36.64;94756.63;4978557;28;8751;-62
2022/03/16 04:52:20;;;;;;;;;;;;;;;24.08;36.44;94759.91;4985061;28;7282;-62
2022/03/16 04:54:46;;;;;;;;;;;;;;;24.04;36.83;94753.88;4972858;28;7244;-62
2022/03/16 04:57:15;;;;;;;;;;;;;;;24.07;36.77;94754.91;4987100;28;7245;-62
2022/03/16 04:59:54;;;;;;;;;;;;;;;24.03;36.57;94754.38;4972403;28;9066;-62
2022/03/16 05:02:22;;;;;;;;;;;;;;;24.05;36.64;94763.66;4971756;28;7080;-62
2022/03/16 05:04:54;;;;;;;;;;;;;;;24.05;36.34;94760.91;4971236;28;8757;-62
2022/03/16 05:07:22;;;;;;;;;;;;;;;24.05;36.16;94760.16;4968400;28;9224;-62
2022/03/16 05:09:48;;;;;;;;;;;;;;;24.06;36.45;94764.38;4970590;28;7224;-62
2022/03/16 05:12:13;;;;;;;;;;;;;;;24.06;35.90;94758.88;4968416;28;10043;-62
2022/03/16 05:14:39;;;;;;;;;;;;;;;24.05;36.78;94754.66;4965437;28;6948;-62
2022/03/16 05:17:06;;;;;;;;;;;;;;;24.06;36.34;94759.66;4966723;28;7330;-62
2022/03/16 05:19:34;;;;;;;;;;;;;;;24.04;35.92;94756.63;4985173;28;9080;-62
2022/03/16 05:22:02;;;;;;;;;;;;;;;24.05;36.57;94760.91;4972010;28;7248;-61
2022/03/16 05:24:41;;;;;;;;;;;;;;;24.05;36.46;94758.16;4985517;28;7288;-62
2022/03/16 05:27:13;;;;;;;;;;;;;;;24.05;36.36;94763.66;4975925;28;9135;-62
2022/03/16 05:29:40;;;;;;;;;;;;;;;24.03;36.14;94759.88;4972115;28;8932;-62
2022/03/16 05:32:26;;;;;;;;;;;;;;;24.03;36.01;94757.13;4987889;28;7900;-62
2022/03/16 05:35:18;;;;;;;;;;;;;;;24.05;35.85;94760.16;4982018;28;9608;-62
2022/03/16 05:38:18;;;;;;;;;;;;;;;24.05;35.21;94763.66;4969758;28;9797;-62
2022/03/16 05:40:53;;;;;;;;;;;;;;;24.04;35.43;94759.38;4953888;28;9411;-62
2022/03/16 05:43:21;;;;;;;;;;;;;;;24.03;34.86;94757.88;4953536;28;9676;-61
2022/03/16 05:45:50;;;;;;;;;;;;;;;24.04;35.00;94766.84;4970174;28;8743;-61
2022/03/16 05:48:27;;;;;;;;;;;;;;;24.05;34.59;94769.16;4953883;28;9386;-61
2022/03/16 05:50:53;;;;;;;;;;;;;;;24.02;34.63;94767.34;4969719;28;8841;-62
2022/03/16 05:53:18;;;;;;;;;;;;;;;24.06;34.60;94775.38;4952621;28;8921;-61
2022/03/16 05:55:44;;;;;;;;;;;;;;;24.03;34.12;94768.88;4951645;28;9088;-62
2022/03/16 05:58:21;;;;;;;;;;;;;;;23.99;34.08;94751.84;4978406;28;9870;-62
2022/03/16 06:01:11;;;;;;;;;;;;;;;24.02;34.95;94761.09;4952761;28;8725;-62
2022/03/16 06:03:37;;;;;;;;;;;;;;;24.00;34.80;94758.84;4968258;28;6869;-62
2022/03/16 06:06:13;;;;;;;;;;;;;;;24.01;34.93;94765.84;4953812;28;9490;-62
2022/03/16 06:08:38;;;;;;;;;;;;;;;23.99;35.02;94760.84;4962368;28;7249;-62
2022/03/16 06:11:16;;;;;;;;;;;;;;;24.00;34.72;94764.34;4953005;28;9315;-62
2022/03/16 06:13:45;;;;;;;;;;;;;;;24.02;35.20;94769.34;4962591;28;7265;-62
2022/03/16 06:16:21;;;;;;;;;;;;;;;24.01;35.03;94774.09;4975158;28;9090;-62
2022/03/16 06:18:49;;;;;;;;;;;;;;;24.02;34.52;94770.09;4971594;28;9087;-62
2022/03/16 06:21:21;;;;;;;;;;;;;;;24.03;34.80;94771.63;4972733;28;9060;-62
2022/03/16 06:24:17;;;;;;;;;;;;;;;24.05;34.54;94779.38;4977508;28;7389;-62
2022/03/16 06:26:43;;;;;;;;;;;;;;;24.05;34.47;94773.88;4931885;29;7076;-62
2022/03/16 06:29:10;;;;;;;;;;;;;;;24.04;33.92;94784.09;4929739;28;9195;-62
2022/03/16 06:31:37;;;;;;;;;;;;;;;24.02;34.11;94772.84;4930270;29;9509;-61
2022/03/16 06:34:03;;;;;;;;;;;;;;;24.05;34.95;94785.63;4932518;28;8781;-62
2022/03/16 06:36:29;;;;;;;;;;;;;;;24.05;34.48;94785.63;4916084;29;8515;-62
2022/03/16 06:38:57;;;;;;;;;;;;;;;24.04;34.00;94786.84;4932994;28;9395;-62
2022/03/16 06:41:32;;;;;;;;;;;;;;;24.05;34.18;94795.88;4933731;29;9091;-62
2022/03/16 06:43:58;;;;;;;;;;;;;;;24.04;34.59;94784.09;4933208;28;9540;-62
2022/03/16 06:46:27;;;;;;;;;;;;;;;24.06;33.99;94787.13;4925922;28;8219;-62
2022/03/16 06:48:52;;;;;;;;;;;;;;;24.01;33.73;94785.09;4930085;28;8366;-63
2022/03/16 06:51:18;;;;;;;;;;;;;;;24.02;33.89;94788.56;4927759;29;7176;-63
2022/03/16 06:53:49;;;;;;;;;;;;;;;23.97;33.78;94776.31;4928297;28;7822;-62
2022/03/16 06:56:22;;;;;;;;;;;;;;;23.95;33.41;94787.78;4928128;28;9381;-62
2022/03/16 06:58:48;;;;;;;;;;;;;;;23.92;34.08;94794.25;4929049;28;9067;-63
2022/03/16 07:01:14;;;;;;;;;;;;;;;23.94;33.69;94799.28;4928416;29;7385;-63
2022/03/16 07:03:45;;;;;;;;;;;;;;;23.97;33.77;94795.53;4968204;28;7452;-63
2022/03/16 07:06:14;;;;;;;;;;;;;;;23.95;33.92;94798.03;4959495;28;7255;-63
2022/03/16 07:08:40;;;;;;;;;;;;;;;23.95;33.79;94798.78;4965549;28;7067;-63
2022/03/16 07:11:07;;;;;;;;;;;;;;;23.96;34.04;94805.03;4983795;28;7042;-63
2022/03/16 07:13:33;;;;;;;;;;;;;;;23.97;34.64;94804.53;4967941;28;7188;-63
2022/03/16 07:15:59;;;;;;;;;;;;;;;23.97;34.74;94804.53;4966124;28;7482;-63
2022/03/16 07:18:27;;;;;;;;;;;;;;;23.95;34.34;94809.00;4983026;28;9077;-63
2022/03/16 07:20:53;;;;;;;;;;;;;;;23.99;34.56;94806.78;4967976;28;9649;-63
2022/03/16 07:23:20;;;;;;;;;;;;;;;24.01;34.47;94801.56;4976618;28;7122;-62
2022/03/16 07:25:55;;;;;;;;;;;;;;;24.01;34.80;94807.06;4969308;28;9524;-62
2022/03/16 07:28:27;;;;;;;;;;;;;;;23.99;34.43;94804.03;4973328;28;9098;-62
2022/03/16 07:30:53;;;;;;;;;;;;;;;24.00;34.67;94794.56;4985020;28;7390;-62
2022/03/16 07:33:19;;;;;;;;;;;;;;;24.01;34.95;94787.84;4970663;28;8995;-62
2022/03/16 07:35:46;;;;;;;;;;;;;;;24.01;34.81;94790.59;4968483;28;9808;-62
2022/03/16 07:38:14;;;;;;;;;;;;;;;24.02;34.64;94791.31;4967952;28;7081;-62
2022/03/16 07:40:41;;;;;;;;;;;;;;;24.03;35.19;94787.34;4967863;28;8160;-62
2022/03/16 07:43:10;;;;;;;;;;;;;;;24.03;34.84;94779.84;4967046;28;7361;-62
2022/03/16 07:45:37;;;;;;;;;;;;;;;24.04;35.17;94778.59;4968378;28;9575;-61
2022/03/16 07:48:06;;;;;;;;;;;;;;;24.01;35.13;94789.81;4980575;28;8191;-62
2022/03/16 07:50:33;;;;;;;;;;;;;;;24.02;35.47;94783.06;4982199;28;9319;-62
2022/03/16 07:52:59;;;;;;;;;;;;;;;24.02;35.27;94772.84;4978475;28;8212;-62
2022/03/16 07:55:28;;;;;;;;;;;;;;;24.05;35.50;94777.41;4968023;28;7282;-62
2022/03/16 07:57:55;;;;;;;;;;;;;;;24.04;35.35;94780.59;4967524;28;7327;-62
2022/03/16 08:00:22;;;;;;;;;;;;;;;24.00;35.10;94783.56;4983828;28;7186;-62
2022/03/16 08:02:48;;;;;;;;;;;;;;;24.07;35.36;94790.63;4968250;28;8294;-62
2022/03/16 08:05:16;;;;;;;;;;;;;;;24.07;35.25;94796.88;4968691;28;6958;-62
2022/03/16 08:07:42;;;;;;;;;;;;;;;24.05;35.15;94790.38;4968976;28;9730;-62
2022/03/16 08:10:09;;;;;;;;;;;;;;;24.03;34.75;94785.34;4966349;28;9416;-62
2022/03/16 08:12:35;;;;;;;;;;;;;;;24.05;35.16;94784.88;4964433;28;9795;-62
2022/03/16 08:15:01;;;;;;;;;;;;;;;24.08;35.02;94786.63;4965455;28;7474;-62
2022/03/16 08:17:27;;;;;;;;;;;;;;;24.09;35.43;94786.16;4976006;28;9353;-61
2022/03/16 08:19:53;;;;;;;;;;;;;;;24.11;34.80;94785.66;4980656;28;7078;-60
2022/03/16 08:22:30;;;;;;;;;;;;;;;24.10;34.86;94773.91;4963218;28;8159;-61
2022/03/16 08:25:01;;;;;;;;;;;;;;;24.08;35.18;94776.41;4964552;28;7308;-62
2022/03/16 08:27:27;;;;;;;;;;;;;;;24.13;35.43;94780.41;4981890;28;8771;-62
2022/03/16 08:29:57;;;;;;;;;;;;;;;24.11;35.55;94775.44;4965688;28;7319;-61
2022/03/16 08:32:23;;;;;;;;;;;;;;;24.12;35.02;94779.66;4967306;28;9063;-62
2022/03/16 08:34:51;;;;;;;;;;;;;;;24.12;35.01;94776.19;4962130;28;8710;-62
2022/03/16 08:37:20;;;;;;;;;;;;;;;24.13;37.01;94775.69;4958333;28;7157;-61
2022/03/16 08:39:48;;;;;;;;;;;;;;;24.13;35.37;94777.69;4965484;28;9082;-62
2022/03/16 08:42:15;;;;;;;;;;;;;;;24.14;35.03;94776.44;4979331;28;6869;-61
2022/03/16 08:44:48;;;;;;;;;;;;;;;24.14;35.22;94777.16;4961964;28;9267;-61
2022/03/16 08:47:16;;;;;;;;;;;;;;;24.16;34.73;94785.72;4980883;28;7255;-61
2022/03/16 08:49:44;;;;;;;;;;;;;;;24.16;34.80;94779.44;4975667;28;9512;-62
2022/03/16 08:52:15;;;;;;;;;;;;;;;24.14;35.33;94787.44;4973694;28;9345;-61
2022/03/16 08:54:42;;;;;;;;;;;;;;;24.18;35.54;94788.72;4964093;28;9364;-61
2022/03/16 08:57:09;;;;;;;;;;;;;;;24.14;35.44;94785.41;4963639;28;7554;-61
2022/03/16 08:59:39;;;;;;;;;;;;;;;24.16;35.33;94799.44;4962106;28;9158;-61
2022/03/16 09:02:06;;;;;;;;;;;;;;;24.13;35.95;94786.69;4980606;28;9057;-61
2022/03/16 09:04:32;;;;;;;;;;;;;;;24.17;35.65;94789.19;4982407;28;8989;-61
2022/03/16 09:06:58;;;;;;;;;;;;;;;24.18;36.51;94783.22;4981826;28;9886;-61
2022/03/16 09:09:25;;;;;;;;;;;;;;;24.21;36.06;94778.72;4977900;28;8741;-61
2022/03/16 09:11:51;;;;;;;;;;;;;;;24.22;35.81;94786.47;4967960;28;7155;-62
2022/03/16 09:14:17;;;;;;;;;;;;;;;24.18;36.34;94777.72;4965681;28;7115;-61
2022/03/16 09:16:47;;;;;;;;;;;;;;;24.18;35.89;94776.97;4962188;28;9194;-61
2022/03/16 09:19:20;;;;;;;;;;;;;;;24.16;36.66;94777.47;4966069;28;7384;-61
2022/03/16 09:21:47;;;;;;;;;;;;;;;24.16;36.71;94769.22;4979323;28;7268;-61
2022/03/16 09:24:16;;;;;;;;;;;;;;;24.15;36.63;94767.69;4962706;28;9721;-61
2022/03/16 09:26:43;;;;;;;;;;;;;;;24.15;36.59;94767.69;4980859;28;7012;-61
2022/03/16 09:29:12;;;;;;;;;;;;;;;24.15;37.41;94767.69;4961579;28;9053;-61
2022/03/16 09:31:39;;;;;;;;;;;;;;;24.13;37.13;94761.94;4961954;28;7244;-61
2022/03/16 09:34:07;;;;;;;;;;;;;;;24.17;36.34;94764.44;4966092;28;9405;-61
2022/03/16 09:36:37;;;;;;;;;;;;;;;24.19;36.63;94757.22;4965405;28;9304;-62
2022/03/16 09:39:04;;;;;;;;;;;;;;;24.18;36.80;94755.72;4981746;28;7019;-63
2022/03/16 09:41:33;;;;;;;;;;;;;;;24.19;36.71;94750.97;4963516;28;10002;-62
2022/03/16 09:44:02;;;;;;;;;;;;;;;24.18;36.75;94752.97;4964181;28;7844;-62
2022/03/16 09:46:33;;;;;;;;;;;;;;;24.17;36.70;94754.22;4965275;28;9144;-62
2022/03/16 09:49:00;;;;;;;;;;;;;;;24.18;36.96;94752.97;4965108;28;7536;-62
2022/03/16 09:51:26;;;;;;;;;;;;;;;24.18;37.04;94749.47;4970795;28;9024;-62
2022/03/16 09:53:55;;;;;;;;;;;;;;;24.20;37.07;94757.97;4989456;28;9358;-62
2022/03/16 09:56:21;;;;;;;;;;;;;;;24.21;36.88;94751.22;4969194;28;9590;-62
2022/03/16 09:58:48;;;;;;;;;;;;;;;24.21;37.04;94749.22;4969653;28;9465;-63
2022/03/16 10:01:14;;;;;;;;;;;;;;;24.21;37.21;94751.97;4970586;28;8756;-62
2022/03/16 10:03:48;;;;;;;;;;;;;;;24.22;36.94;94739.00;4968123;28;7302;-62
2022/03/16 10:06:17;;;;;;;;;;;;;;;24.20;37.28;94742.25;4967614;28;7106;-62
2022/03/16 10:13:13;;;;;;;;;;;;;;;24.20;36.90;94736.75;4986522;28;7082;-62
2022/03/16 10:14:17;;;;;;;;;;;;;;;24.22;37.85;94733.50;4968923;28;7320;-63
2022/03/16 10:19:51;;;;;;;;;;;;;;;24.25;37.39;94730.50;4970785;28;9184;-62
2022/03/16 10:22:25;;;;;;;;;;;;;;;24.25;38.14;94714.00;4986016;28;9587;-62
2022/03/16 10:25:05;;;;;;;;;;;;;;;24.25;37.10;94721.53;4971145;28;7280;-62
2022/03/16 10:27:36;;;;;;;;;;;;;;;24.24;37.41;94720.78;4980295;28;8344;-62
2022/03/16 10:30:06;;;;;;;;;;;;;;;24.21;37.46;94721.75;4968620;28;8726;-62
2022/03/16 10:32:32;;;;;;;;;;;;;;;24.18;36.98;94722.75;4961706;28;9250;-62
2022/03/16 10:35:06;;;;;;;;;;;;;;;24.16;38.01;94714.25;4963619;28;8577;-62
2022/03/16 10:37:42;;;;;;;;;;;;;;;24.17;37.57;94707.50;4962983;28;8781;-62
2022/03/16 10:40:18;;;;;;;;;;;;;;;24.18;37.47;94714.50;4960865;28;7202;-62
2022/03/16 10:48:26;;;;;;;;;;;;;;;24.20;38.25;94706.53;4972264;28;7519;-62
2022/03/16 10:51:02;;;;;;;;;;;;;;;24.24;38.30;94709.78;4982588;28;7658;-62
2022/03/16 10:53:33;;;;;;;;;;;;;;;24.25;38.25;94705.03;4970438;28;7442;-62
2022/03/16 10:55:59;;;;;;;;;;;;;;;24.27;38.28;94711.53;4976139;28;9471;-62
2022/03/16 10:58:27;;;;;;;;;;;;;;;24.29;38.38;94709.06;4968148;28;9380;-62
2022/03/16 11:00:56;;;;;;;;;;;;;;;24.32;38.12;94699.81;4967001;28;9431;-61
2022/03/16 11:03:27;;;;;;;;;;;;;;;24.32;38.48;94699.03;4985623;28;8637;-61
2022/03/16 11:05:55;;;;;;;;;;;;;;;24.36;38.58;94697.56;4981822;28;9049;-61
2022/03/16 11:08:22;;;;;;;;;;;;;;;24.36;38.45;94694.81;4982360;28;7257;-61
2022/03/16 11:10:48;;;;;;;;;;;;;;;24.36;38.88;94692.06;4969485;28;7258;-61
2022/03/16 11:13:28;;;;;;;;;;;;;;;24.36;38.21;94689.31;4961330;28;7107;-61
2022/03/16 11:15:57;;;;;;;;;;;;;;;24.39;38.78;94699.34;4970473;28;9134;-61
2022/03/16 11:18:24;;;;;;;;;;;;;;;24.40;39.27;94700.81;4979940;28;7294;-61
2022/03/16 11:20:56;;;;;;;;;;;;;;;24.37;39.59;94698.31;4965688;28;8781;-61
2022/03/16 11:27:09;;;;;;;;;;;;;;;24.41;39.03;94701.56;4967703;28;7256;-61
2022/03/16 11:30:17;;;;;;;;;;;;;;;24.41;39.77;94685.84;4965681;28;9398;-62
2022/03/16 11:32:48;;;;;;;;;;;;;;;24.43;39.66;94688.84;4974485;28;7253;-62
2022/03/16 11:35:20;;;;;;;;;;;;;;;24.45;39.02;94682.84;4962683;28;7396;-61
2022/03/16 11:37:48;;;;;;;;;;;;;;;24.44;39.37;94673.88;4964492;28;9113;-61
2022/03/16 11:40:22;;;;;;;;;;;;;;;24.48;39.20;94679.09;4987693;28;9577;-61
2022/03/16 11:43:12;;;;;;;;;;;;;;;24.48;39.28;94677.13;4988064;28;9066;-61
2022/03/16 11:45:44;;;;;;;;;;;;;;;24.47;39.21;94672.84;4987442;28;9098;-61
2022/03/16 11:48:31;;;;;;;;;;;;;;;24.48;38.85;94662.59;4971561;28;7243;-61
2022/03/16 11:51:09;;;;;;;;;;;;;;;24.50;38.51;94673.88;4990337;28;7334;-61
2022/03/16 11:53:48;;;;;;;;;;;;;;;24.51;38.75;94661.63;4987556;28;7336;-61
2022/03/16 11:56:25;;;;;;;;;;;;;;;24.53;39.20;94659.84;4987527;28;9285;-61
2022/03/16 11:59:02;;;;;;;;;;;;;;;24.52;38.73;94658.38;4985372;28;7302;-61
2022/03/16 12:01:37;;;;;;;;;;;;;;;24.50;38.71;94652.63;4969148;28;9045;-61
2022/03/16 12:04:12;;;;;;;;;;;;;;;24.52;39.03;94652.88;4969964;28;9427;-61
2022/03/16 12:07:09;;;;;;;;;;;;;;;24.54;39.25;94646.88;4971419;28;9199;-61
2022/03/16 12:09:54;;;;;;;;;;;;;;;24.56;38.84;94647.88;4985279;28;7933;-61
2022/03/16 12:12:57;;;;;;;;;;;;;;;24.56;39.09;94642.38;4975219;28;7505;-61
2022/03/16 12:15:34;;;;;;;;;;;;;;;24.59;38.20;94646.13;4986418;28;7404;-61
2022/03/16 12:18:00;;;;;;;;;;;;;;;24.60;38.79;94642.88;4973413;28;7074;-61
2022/03/16 12:20:52;;;;;;;;;;;;;;;24.61;38.50;94638.88;4985836;28;6982;-61
2022/03/16 12:23:38;;;;;;;;;;;;;;;24.61;38.52;94630.66;4984323;28;7106;-61
2022/03/16 12:26:11;;;;;;;;;;;;;;;24.62;38.03;94626.63;4970969;28;7002;-61
2022/03/16 12:31:34;;;;;;;;;;;;;;;24.62;38.00;94626.63;4929912;29;7367;-61
2022/03/16 12:34:01;;;;;;;;;;;;;;;24.62;38.06;94626.63;4926051;29;9351;-61
2022/03/16 12:36:35;;;;;;;;;;;;;;;24.62;38.39;94618.38;4932642;28;8775;-61
2022/03/16 12:39:10;;;;;;;;;;;;;;;24.61;38.06;94616.88;4911919;29;8799;-61
2022/03/16 12:44:42;;;;;;;;;;;;;;;24.58;37.84;94597.88;4931534;28;9184;-61
2022/03/16 12:47:16;;;;;;;;;;;;;;;24.57;38.10;94599.13;4931115;28;9172;-61
2022/03/16 12:49:44;;;;;;;;;;;;;;;24.58;38.28;94595.13;4911994;29;9343;-61
2022/03/16 12:52:11;;;;;;;;;;;;;;;24.59;38.44;94594.66;4912831;29;8767;-61
2022/03/16 12:54:40;;;;;;;;;;;;;;;24.62;37.76;94592.91;4913727;29;9060;-61
2022/03/16 12:57:08;;;;;;;;;;;;;;;24.63;37.92;94594.38;4932548;29;9245;-61
2022/03/16 12:59:48;;;;;;;;;;;;;;;24.63;38.31;94588.88;4918354;29;9060;-61
2022/03/16 13:02:20;;;;;;;;;;;;;;;24.63;37.81;94591.63;4930144;29;8647;-61
2022/03/16 13:04:58;;;;;;;;;;;;;;;24.62;37.86;94582.63;4915912;29;7129;-61
2022/03/16 13:07:26;;;;;;;;;;;;;;;24.62;38.32;94581.91;4936598;28;9247;-61
2022/03/16 13:09:57;;;;;;;;;;;;;;;24.62;37.86;94585.38;4971286;28;7248;-61
2022/03/16 13:13:09;;;;;;;;;;;;;;;24.64;37.69;94577.38;4981498;28;8763;-61
2022/03/16 13:15:42;;;;;;;;;;;;;;;24.64;38.07;94582.16;4914003;29;9779;-61
2022/03/16 13:18:09;;;;;;;;;;;;;;;24.65;37.81;94583.63;4909234;29;7359;-61
2022/03/16 13:20:36;;;;;;;;;;;;;;;24.66;37.95;94582.41;4910315;29;8675;-61
2022/03/16 13:23:04;;;;;;;;;;;;;;;24.67;38.14;94578.38;4929368;28;7002;-61
2022/03/16 13:25:30;;;;;;;;;;;;;;;24.68;37.62;94577.88;4931851;29;7225;-61
2022/03/16 13:27:56;;;;;;;;;;;;;;;24.67;37.55;94581.88;4916563;28;7164;-61
2022/03/16 13:30:24;;;;;;;;;;;;;;;24.66;37.71;94574.88;4932786;29;9365;-61
2022/03/16 13:32:53;;;;;;;;;;;;;;;24.68;37.57;94580.63;4929406;28;8716;-62
2022/03/16 13:35:26;;;;;;;;;;;;;;;24.67;37.79;94572.88;4912356;29;9149;-61